Time;durP1;ratioP1;P1;durP2;ratioP2;P2;SDS_P1;SDS_P2;PMS_P1;PMS_P2;Temp;Humidity;BMP_temperature;BMP_pressure;BME280_temperature;BME280_humidity;BME280_pressure;Samples;Min_cycle;Max_cycle;Signal;HPM_P1;HPM_P2
2023/08/19 00:00:36;;;;;;;60.13;22.42;;;20.20;99.90;;;;;;5019043;28;20049;-82
2023/08/19 00:03:03;;;;;;;56.85;21.95;;;20.20;99.90;;;;;;5065292;28;20037;-82
2023/08/19 00:05:30;;;;;;;59.03;22.42;;;20.20;99.90;;;;;;5037323;28;20076;-81
2023/08/19 00:10:28;;;;;;;60.20;22.17;;;20.20;99.90;;;;;;5039353;28;20139;-81
2023/08/19 00:12:55;;;;;;;53.25;21.67;;;20.30;99.90;;;;;;5068065;28;20075;-81
2023/08/19 00:15:22;;;;;;;67.35;21.70;;;20.30;99.90;;;;;;5036532;28;20125;-82
2023/08/19 00:17:50;;;;;;;57.85;21.73;;;20.30;99.90;;;;;;5036960;28;20120;-82
2023/08/19 00:20:16;;;;;;;53.35;21.25;;;20.30;99.90;;;;;;5049208;28;20111;-82
2023/08/19 00:22:43;;;;;;;56.88;21.60;;;20.30;99.90;;;;;;5034293;28;20111;-83
2023/08/19 00:25:10;;;;;;;46.63;19.58;;;20.30;99.90;;;;;;5024118;28;20045;-82
2023/08/19 00:27:37;;;;;;;47.95;19.38;;;20.30;99.90;;;;;;5049297;28;20131;-82
2023/08/19 00:30:03;;;;;;;46.17;19.42;;;20.40;99.90;;;;;;5046237;28;20076;-82
2023/08/19 00:32:30;;;;;;;36.80;14.65;;;20.40;99.90;;;;;;5065028;28;20041;-81
2023/08/19 00:34:57;;;;;;;25.13;9.82;;;20.40;99.90;;;;;;5041608;28;20083;-84
2023/08/19 00:37:26;;;;;;;26.63;11.23;;;20.40;99.90;;;;;;5024783;28;20132;-83
2023/08/19 00:39:52;;;;;;;20.15;10.02;;;20.40;99.90;;;;;;5048297;28;20120;-82
2023/08/19 00:42:19;;;;;;;24.50;10.40;;;20.40;99.90;;;;;;5030730;28;20144;-81
2023/08/19 00:44:45;;;;;;;20.33;9.25;;;20.40;99.90;;;;;;5050627;28;20053;-82
2023/08/19 00:47:12;;;;;;;18.92;7.95;;;20.30;99.90;;;;;;5050463;28;20057;-81
2023/08/19 00:49:39;;;;;;;15.05;7.30;;;20.30;99.90;;;;;;5019261;28;20064;-82
2023/08/19 00:52:06;;;;;;;17.63;7.32;;;20.20;99.90;;;;;;5036273;28;20049;-83
2023/08/19 00:54:32;;;;;;;17.02;7.43;;;20.10;99.90;;;;;;5045564;28;20171;-81
2023/08/19 00:59:46;;;;;;;15.15;6.30;;;20.00;99.90;;;;;;5045756;28;20487;-82
2023/08/19 01:02:13;;;;;;;14.40;6.97;;;20.00;99.90;;;;;;5042547;28;20036;-81
2023/08/19 01:04:39;;;;;;;13.13;5.95;;;20.00;99.90;;;;;;5020195;28;20072;-83
2023/08/19 01:07:08;;;;;;;20.30;6.68;;;19.90;99.90;;;;;;5062564;28;20048;-82
2023/08/19 01:09:36;;;;;;;14.82;6.40;;;20.00;99.90;;;;;;5053061;28;20048;-83
2023/08/19 01:12:04;;;;;;;12.57;6.18;;;19.90;99.90;;;;;;5027266;28;20044;-83
2023/08/19 01:14:31;;;;;;;21.83;6.68;;;19.90;99.90;;;;;;5022082;28;20037;-83
2023/08/19 01:16:58;;;;;;;15.38;6.20;;;19.90;99.90;;;;;;5018310;28;20579;-82
2023/08/19 01:19:25;;;;;;;13.95;6.30;;;19.90;99.90;;;;;;5048578;28;20430;-83
2023/08/19 01:21:52;;;;;;;15.63;6.70;;;19.90;99.90;;;;;;5029846;28;20404;-82
2023/08/19 01:24:19;;;;;;;15.93;6.55;;;19.80;99.90;;;;;;5051333;28;20491;-83
2023/08/19 01:29:33;;;;;;;15.35;5.93;;;19.80;99.90;;;;;;5027487;28;20044;-83
2023/08/19 01:32:00;;;;;;;14.30;6.57;;;19.80;99.90;;;;;;5037769;28;20388;-83
2023/08/19 01:34:27;;;;;;;13.13;6.32;;;19.70;99.90;;;;;;5036916;28;20044;-82
2023/08/19 01:39:40;;;;;;;12.40;5.50;;;19.70;99.90;;;;;;5033453;28;20073;-83
2023/08/19 01:42:06;;;;;;;14.18;5.18;;;19.70;99.90;;;;;;5017655;28;20045;-82
2023/08/19 01:44:33;;;;;;;13.05;5.38;;;19.70;99.90;;;;;;5024683;28;20051;-82
2023/08/19 01:47:02;;;;;;;12.00;4.90;;;19.70;99.90;;;;;;5024778;28;20061;-81
2023/08/19 01:49:29;;;;;;;14.80;4.78;;;19.60;99.90;;;;;;5059433;28;20036;-82
2023/08/19 01:51:56;;;;;;;15.13;4.95;;;19.60;99.90;;;;;;5057848;28;20056;-80
2023/08/19 01:54:23;;;;;;;11.50;4.90;;;19.50;99.90;;;;;;5021723;28;20041;-81
2023/08/19 01:56:50;;;;;;;10.82;4.95;;;19.50;99.90;;;;;;5054229;28;20511;-82
2023/08/19 01:59:16;;;;;;;12.73;5.03;;;19.50;99.90;;;;;;5026704;28;20526;-80
2023/08/19 02:01:43;;;;;;;9.77;4.78;;;19.50;99.90;;;;;;5034393;28;20041;-80
2023/08/19 02:04:10;;;;;;;13.15;4.32;;;19.50;99.90;;;;;;5031251;28;20051;-81
2023/08/19 02:06:36;;;;;;;10.23;4.28;;;19.40;99.90;;;;;;5046286;28;20044;-82
2023/08/19 02:09:03;;;;;;;12.20;4.00;;;19.40;99.90;;;;;;5032909;28;20380;-81
2023/08/19 02:11:31;;;;;;;10.15;4.28;;;19.40;99.90;;;;;;5026527;28;20459;-83
2023/08/19 02:13:57;;;;;;;11.07;3.83;;;19.40;99.90;;;;;;5045350;28;20127;-81
2023/08/19 02:16:24;;;;;;;12.85;3.70;;;19.30;99.90;;;;;;5020786;28;20463;-81
2023/08/19 02:18:51;;;;;;;8.68;3.45;;;19.30;99.90;;;;;;5017360;28;20072;-82
2023/08/19 02:21:18;;;;;;;9.60;3.42;;;19.30;99.90;;;;;;5017893;28;20107;-80
2023/08/19 02:23:46;;;;;;;8.63;3.30;;;19.20;99.90;;;;;;5047197;28;20041;-82
2023/08/19 02:26:15;;;;;;;7.40;3.20;;;19.20;99.90;;;;;;5047392;28;20118;-82
2023/08/19 02:28:42;;;;;;;7.13;3.17;;;19.20;99.90;;;;;;5049134;28;20052;-81
2023/08/19 02:31:09;;;;;;;7.32;3.10;;;19.20;99.90;;;;;;5025168;28;20071;-81
2023/08/19 02:33:36;;;;;;;9.02;3.08;;;19.20;99.90;;;;;;5022216;28;20419;-81
2023/08/19 02:36:03;;;;;;;8.02;3.13;;;19.10;99.90;;;;;;5043346;28;20071;-82
2023/08/19 02:38:31;;;;;;;7.07;3.00;;;19.10;99.90;;;;;;5044493;28;20112;-81
2023/08/19 02:40:58;;;;;;;6.50;2.78;;;19.10;99.90;;;;;;5044824;28;20028;-82
2023/08/19 02:43:25;;;;;;;7.75;3.20;;;19.00;99.90;;;;;;5078359;28;20565;-82
2023/08/19 02:45:53;;;;;;;7.65;2.70;;;19.00;99.90;;;;;;5071889;28;20128;-81
2023/08/19 02:48:20;;;;;;;10.68;3.08;;;19.00;99.90;;;;;;5072763;28;20048;-80
2023/08/19 02:50:47;;;;;;;8.52;3.08;;;19.00;99.90;;;;;;5079681;28;20052;-80
2023/08/19 02:53:14;;;;;;;8.07;2.90;;;19.00;99.90;;;;;;5077571;28;20111;-82
2023/08/19 02:55:41;;;;;;;8.48;2.90;;;19.00;99.90;;;;;;5053092;28;20045;-80
2023/08/19 02:58:13;;;;;;;7.82;2.70;;;19.00;99.90;;;;;;5066097;28;20047;-81
2023/08/19 03:00:40;;;;;;;8.05;2.70;;;19.00;99.90;;;;;;5066265;28;20056;-81
2023/08/19 03:03:07;;;;;;;11.45;2.92;;;19.00;99.90;;;;;;5069416;28;20045;-82
2023/08/19 03:05:33;;;;;;;10.63;3.33;;;19.00;99.90;;;;;;5076127;28;20097;-81
2023/08/19 03:08:02;;;;;;;9.18;3.05;;;19.00;99.90;;;;;;5074241;28;20083;-82
2023/08/19 03:10:29;;;;;;;8.57;2.97;;;19.00;99.90;;;;;;5074668;28;20091;-82
2023/08/19 03:12:58;;;;;;;11.93;2.90;;;19.00;99.90;;;;;;5056091;28;20364;-81
2023/08/19 03:15:25;;;;;;;11.77;2.72;;;19.00;99.90;;;;;;5090903;28;20097;-81
2023/08/19 03:17:54;;;;;;;13.43;2.92;;;18.90;99.90;;;;;;5067968;28;20033;-82
2023/08/19 03:20:21;;;;;;;6.45;2.72;;;18.90;99.90;;;;;;5056140;28;20041;-81
2023/08/19 03:22:48;;;;;;;9.98;2.70;;;18.90;99.90;;;;;;5056802;28;20075;-82
2023/08/19 03:25:15;;;;;;;8.20;2.92;;;18.90;99.90;;;;;;5068872;28;20070;-82
2023/08/19 03:27:44;;;;;;;7.55;2.55;;;18.90;99.90;;;;;;5076318;28;20498;-82
2023/08/19 03:30:11;;;;;;;9.63;2.67;;;18.90;99.90;;;;;;5056978;28;20136;-80
2023/08/19 03:32:39;;;;;;;7.95;2.55;;;18.90;99.90;;;;;;5052969;28;20037;-80
2023/08/19 03:35:06;;;;;;;7.05;2.60;;;18.90;99.90;;;;;;5069083;28;20056;-82
2023/08/19 03:37:34;;;;;;;8.93;2.45;;;18.90;99.90;;;;;;5062442;28;20110;-81
2023/08/19 03:40:01;;;;;;;6.72;2.55;;;18.90;99.90;;;;;;5070744;28;20496;-80
2023/08/19 03:42:29;;;;;;;9.20;2.72;;;18.90;99.90;;;;;;5061329;28;20072;-81
2023/08/19 03:44:56;;;;;;;8.85;3.33;;;18.80;99.90;;;;;;5056242;28;20463;-82
2023/08/19 03:49:52;;;;;;;8.35;2.35;;;18.70;99.90;;;;;;5085156;28;20370;-82
2023/08/19 03:52:23;;;;;;;8.48;2.40;;;18.60;99.90;;;;;;5081317;28;20055;-82
2023/08/19 03:54:51;;;;;;;9.90;2.58;;;18.60;99.90;;;;;;5062455;28;20446;-81
2023/08/19 03:57:19;;;;;;;15.48;2.70;;;18.50;99.90;;;;;;5064134;28;20094;-81
2023/08/19 03:59:45;;;;;;;13.35;2.17;;;18.40;99.90;;;;;;5067657;28;20039;-82
2023/08/19 04:02:12;;;;;;;11.63;2.60;;;18.30;99.90;;;;;;5072474;28;20115;-80
2023/08/19 04:04:39;;;;;;;10.90;2.50;;;18.30;99.90;;;;;;5055913;28;20079;-80
2023/08/19 04:07:06;;;;;;;13.60;2.45;;;18.20;99.90;;;;;;5062703;28;20044;-81
2023/08/19 04:09:33;;;;;;;6.88;2.00;;;18.20;99.90;;;;;;5063234;28;20040;-81
2023/08/19 04:12:01;;;;;;;11.18;2.45;;;18.20;99.90;;;;;;5039870;28;20052;-80
2023/08/19 04:14:28;;;;;;;10.48;2.30;;;18.20;99.90;;;;;;5055035;28;20032;-81
2023/08/19 04:16:55;;;;;;;13.70;2.55;;;18.20;99.90;;;;;;5055760;28;20041;-80
2023/08/19 04:19:22;;;;;;;10.52;2.47;;;18.10;99.90;;;;;;5054991;28;20064;-81
2023/08/19 04:21:48;;;;;;;9.75;2.20;;;18.10;99.90;;;;;;5069681;28;20087;-81
2023/08/19 04:24:15;;;;;;;8.07;2.33;;;18.00;99.90;;;;;;5079397;28;20071;-82
2023/08/19 04:26:43;;;;;;;10.30;2.40;;;18.00;99.90;;;;;;5046673;28;20102;-80
2023/08/19 04:29:10;;;;;;;15.57;2.80;;;17.90;99.90;;;;;;5055562;28;20044;-81
2023/08/19 04:31:37;;;;;;;10.38;2.53;;;17.90;99.90;;;;;;5067639;28;20102;-81
2023/08/19 04:34:04;;;;;;;11.75;2.25;;;17.80;99.90;;;;;;5084493;28;20051;-82
2023/08/19 04:36:31;;;;;;;13.05;2.47;;;17.80;99.90;;;;;;5066098;28;20056;-81
2023/08/19 04:38:58;;;;;;;9.20;2.13;;;17.80;99.90;;;;;;5042496;28;20047;-81
2023/08/19 04:41:25;;;;;;;7.40;2.50;;;17.80;99.90;;;;;;5054556;28;20037;-82
2023/08/19 04:43:52;;;;;;;14.45;2.78;;;17.70;99.90;;;;;;5055830;28;20057;-80
2023/08/19 04:46:21;;;;;;;11.40;1.70;;;17.70;99.90;;;;;;5067384;28;20049;-81
2023/08/19 04:48:48;;;;;;;13.05;2.25;;;17.70;99.90;;;;;;5052174;28;20048;-82
2023/08/19 04:51:15;;;;;;;9.57;2.00;;;17.60;99.90;;;;;;5055559;28;20128;-81
2023/08/19 04:53:44;;;;;;;11.38;2.10;;;17.60;99.90;;;;;;5054189;28;20131;-82
2023/08/19 04:56:10;;;;;;;11.07;2.03;;;17.60;99.90;;;;;;5038634;28;20075;-82
2023/08/19 04:58:37;;;;;;;8.88;2.05;;;17.50;99.90;;;;;;5055189;28;20063;-81
2023/08/19 05:01:04;;;;;;;9.40;2.20;;;17.50;99.90;;;;;;5054226;28;20037;-82
2023/08/19 05:03:32;;;;;;;17.73;2.58;;;17.50;99.90;;;;;;5038686;28;20053;-82
2023/08/19 05:06:00;;;;;;;8.65;1.80;;;17.50;99.90;;;;;;5039258;28;20050;-82
2023/08/19 05:08:38;;;;;;;12.30;2.25;;;17.40;99.90;;;;;;5078093;28;20137;-81
2023/08/19 05:11:06;;;;;;;11.52;2.40;;;17.40;99.90;;;;;;5057998;28;20120;-80
2023/08/19 05:13:36;;;;;;;10.93;1.95;;;17.40;99.90;;;;;;5086374;28;20041;-81
2023/08/19 05:16:05;;;;;;;8.50;1.90;;;17.40;99.90;;;;;;5063994;28;20076;-81
2023/08/19 05:18:34;;;;;;;8.02;2.17;;;17.30;99.90;;;;;;5082227;28;20041;-81
2023/08/19 05:21:02;;;;;;;17.27;2.53;;;17.30;99.90;;;;;;5055023;28;20047;-82
2023/08/19 05:23:29;;;;;;;8.50;1.80;;;17.30;99.90;;;;;;5079636;28;20093;-81
2023/08/19 05:25:56;;;;;;;10.82;1.83;;;17.30;99.90;;;;;;5054849;28;20049;-82
2023/08/19 05:28:25;;;;;;;8.52;2.00;;;17.30;99.90;;;;;;5072786;28;20040;-82
2023/08/19 05:30:51;;;;;;;12.57;2.22;;;17.30;99.90;;;;;;5069483;28;20103;-82
2023/08/19 05:33:18;;;;;;;11.55;1.77;;;17.30;99.90;;;;;;5065218;28;20044;-83
2023/08/19 05:35:45;;;;;;;13.30;2.47;;;17.30;99.90;;;;;;5093525;28;20055;-82
2023/08/19 05:38:13;;;;;;;15.57;2.15;;;17.40;99.90;;;;;;5074283;28;20052;-82
2023/08/19 05:40:39;;;;;;;15.85;2.10;;;17.40;99.90;;;;;;5067576;28;20142;-81
2023/08/19 05:43:06;;;;;;;9.45;2.17;;;17.40;99.90;;;;;;5045259;28;20532;-82
2023/08/19 05:45:33;;;;;;;13.40;1.67;;;17.50;99.90;;;;;;5018239;28;20497;-81
2023/08/19 05:48:03;;;;;;;11.70;1.88;;;17.50;99.90;;;;;;5019962;28;20443;-82
2023/08/19 05:50:30;;;;;;;17.02;2.15;;;17.50;99.90;;;;;;5017974;28;20041;-81
2023/08/19 05:52:57;;;;;;;12.85;2.20;;;17.50;99.90;;;;;;5052168;28;20398;-82
2023/08/19 05:55:23;;;;;;;15.52;2.17;;;17.50;99.90;;;;;;5025790;28;20083;-81
2023/08/19 05:57:51;;;;;;;16.30;2.67;;;17.60;99.90;;;;;;5049479;28;20116;-83
2023/08/19 06:00:18;;;;;;;10.35;2.30;;;17.60;99.90;;;;;;5026838;28;20075;-82
2023/08/19 06:02:45;;;;;;;12.48;1.70;;;17.60;99.90;;;;;;5065811;28;20375;-80
2023/08/19 06:05:11;;;;;;;18.52;2.70;;;17.70;99.90;;;;;;5045682;28;20050;-82
2023/08/19 06:07:39;;;;;;;10.65;2.00;;;17.70;99.90;;;;;;5058430;28;20111;-81
2023/08/19 06:10:06;;;;;;;12.63;1.90;;;17.70;99.90;;;;;;5017656;28;20096;-82
2023/08/19 06:12:33;;;;;;;20.70;2.25;;;17.80;99.90;;;;;;5047167;28;20102;-82
2023/08/19 06:15:00;;;;;;;14.88;2.22;;;17.90;99.90;;;;;;5035144;28;20052;-81
2023/08/19 06:17:27;;;;;;;8.18;1.90;;;18.00;99.90;;;;;;5017343;28;20075;-82
2023/08/19 06:19:54;;;;;;;14.50;1.88;;;18.10;99.90;;;;;;5016603;28;20120;-83
2023/08/19 06:22:20;;;;;;;16.15;2.88;;;18.20;99.90;;;;;;5017803;28;20128;-82
2023/08/19 06:24:47;;;;;;;20.05;2.35;;;18.30;99.90;;;;;;5034688;28;20132;-81
2023/08/19 06:27:16;;;;;;;16.80;2.17;;;18.30;99.90;;;;;;5045676;28;20037;-81
2023/08/19 06:29:42;;;;;;;12.57;2.53;;;18.40;99.90;;;;;;5055020;28;20055;-81
2023/08/19 06:32:09;;;;;;;12.73;1.92;;;18.50;99.90;;;;;;5042784;28;20132;-81
2023/08/19 06:34:35;;;;;;;12.98;1.95;;;18.60;99.90;;;;;;5022318;28;20056;-81
2023/08/19 06:37:02;;;;;;;16.10;2.28;;;18.80;99.90;;;;;;5035394;28;20051;-81
2023/08/19 06:39:29;;;;;;;13.93;2.45;;;18.90;99.90;;;;;;5061975;28;20060;-81
2023/08/19 06:41:55;;;;;;;12.70;1.73;;;19.00;99.90;;;;;;5074671;28;20040;-81
2023/08/19 06:44:22;;;;;;;11.43;1.77;;;19.00;99.90;;;;;;5033363;28;20452;-81
2023/08/19 06:46:49;;;;;;;17.52;2.40;;;19.00;99.90;;;;;;5051847;28;20535;-80
2023/08/19 06:49:15;;;;;;;15.27;2.17;;;19.00;99.90;;;;;;5051603;28;20052;-82
2023/08/19 06:51:42;;;;;;;11.68;2.00;;;19.00;99.90;;;;;;5053863;28;20081;-80
2023/08/19 06:54:09;;;;;;;9.93;1.77;;;19.10;99.90;;;;;;5028610;28;20091;-81
2023/08/19 06:56:38;;;;;;;9.15;1.90;;;19.00;99.90;;;;;;5043577;28;20116;-81
2023/08/19 06:59:04;;;;;;;11.27;1.95;;;19.00;99.90;;;;;;5034963;28;20076;-81
2023/08/19 07:01:31;;;;;;;15.80;2.17;;;19.00;99.90;;;;;;5025322;28;20041;-81
2023/08/19 07:03:58;;;;;;;12.45;2.47;;;19.00;99.90;;;;;;5043201;28;20037;-83
2023/08/19 07:06:25;;;;;;;16.52;2.42;;;19.10;99.90;;;;;;5046961;28;20045;-82
2023/08/19 07:08:52;;;;;;;13.25;1.90;;;19.10;99.90;;;;;;5026169;28;20041;-82
2023/08/19 07:11:18;;;;;;;11.10;2.03;;;19.10;99.90;;;;;;5046285;28;20079;-83
2023/08/19 07:13:45;;;;;;;10.55;1.80;;;19.10;99.90;;;;;;5044574;28;20220;-81
2023/08/19 07:16:12;;;;;;;12.13;2.28;;;19.20;99.90;;;;;;5026779;28;20107;-81
2023/08/19 07:18:38;;;;;;;18.88;2.30;;;19.20;99.90;;;;;;5043430;28;20036;-81
2023/08/19 07:21:05;;;;;;;14.93;2.72;;;19.20;99.90;;;;;;5045107;28;20083;-82
2023/08/19 07:23:32;;;;;;;17.02;2.67;;;19.30;99.90;;;;;;5047017;28;20120;-83
2023/08/19 07:25:58;;;;;;;15.38;2.67;;;19.30;99.90;;;;;;5051673;28;20120;-81
2023/08/19 07:28:25;;;;;;;14.38;2.53;;;19.30;99.90;;;;;;5053484;28;20045;-82
2023/08/19 07:30:52;;;;;;;15.65;2.25;;;19.40;99.90;;;;;;5040044;28;20041;-81
2023/08/19 07:33:19;;;;;;;9.32;1.92;;;19.40;99.90;;;;;;5051074;28;20375;-80
2023/08/19 07:35:46;;;;;;;17.60;2.25;;;19.50;99.90;;;;;;5054928;28;20379;-80
2023/08/19 07:38:14;;;;;;;7.90;1.77;;;19.60;99.90;;;;;;5037426;28;20063;-80
2023/08/19 07:40:41;;;;;;;13.45;1.75;;;19.70;99.90;;;;;;5056057;28;20170;-82
2023/08/19 07:43:08;;;;;;;9.70;1.98;;;19.80;99.90;;;;;;5058705;28;20063;-80
2023/08/19 07:45:35;;;;;;;11.35;1.85;;;20.00;99.90;;;;;;5055877;28;20467;-80
2023/08/19 07:48:02;;;;;;;13.57;3.30;;;20.00;99.90;;;;;;5056273;28;20456;-82
2023/08/19 07:50:29;;;;;;;8.35;2.10;;;20.00;99.90;;;;;;5055171;28;20099;-80
2023/08/19 07:52:56;;;;;;;10.20;1.60;;;20.10;99.90;;;;;;5038341;28;20479;-82
2023/08/19 07:55:22;;;;;;;10.15;1.63;;;20.00;99.90;;;;;;5055288;28;20060;-82
2023/08/19 07:57:49;;;;;;;10.25;1.65;;;20.10;99.90;;;;;;5084172;28;20052;-82
2023/08/19 08:00:16;;;;;;;7.57;1.83;;;20.30;99.90;;;;;;5054157;28;20434;-82
2023/08/19 08:02:42;;;;;;;15.80;1.77;;;20.40;99.90;;;;;;5084011;28;20036;-84
2023/08/19 08:05:09;;;;;;;10.65;1.83;;;20.50;99.90;;;;;;5077195;28;20044;-85
2023/08/19 08:07:36;;;;;;;13.38;2.22;;;20.80;99.90;;;;;;5073838;28;20160;-85
2023/08/19 08:10:06;;;;;;;12.02;1.65;;;21.00;99.90;;;;;;5059422;28;20052;-81
2023/08/19 08:12:32;;;;;;;8.73;1.63;;;21.20;99.90;;;;;;5054647;28;20773;-81
2023/08/19 08:14:59;;;;;;;12.80;1.63;;;21.30;99.90;;;;;;5052089;28;20128;-82
2023/08/19 08:17:27;;;;;;;11.52;2.20;;;21.20;99.90;;;;;;5072665;28;20455;-84
2023/08/19 08:19:54;;;;;;;14.18;1.95;;;21.00;99.90;;;;;;5070330;28;20041;-81
2023/08/19 08:22:20;;;;;;;9.93;1.60;;;21.00;99.90;;;;;;5058389;28;20055;-82
2023/08/19 08:24:47;;;;;;;15.55;1.85;;;21.00;99.90;;;;;;5057635;28;20072;-87
2023/08/19 08:27:15;;;;;;;10.50;1.88;;;21.10;99.90;;;;;;5047125;28;20053;-84
2023/08/19 08:29:42;;;;;;;15.40;1.98;;;21.20;99.90;;;;;;5065139;28;20071;-83
2023/08/19 08:32:09;;;;;;;12.82;1.95;;;21.10;99.90;;;;;;5062437;28;20442;-82
2023/08/19 08:34:36;;;;;;;7.43;1.80;;;21.10;99.90;;;;;;5064553;28;20029;-82
2023/08/19 08:37:04;;;;;;;11.27;1.70;;;21.30;99.90;;;;;;5065887;28;20127;-82
2023/08/19 08:39:31;;;;;;;9.13;1.50;;;21.50;99.90;;;;;;5063182;28;20491;-82
2023/08/19 08:41:58;;;;;;;8.65;1.80;;;21.80;99.90;;;;;;5015953;28;1072454;-80
2023/08/19 08:44:24;;;;;;;11.73;1.92;;;22.00;99.90;;;;;;5042809;28;20071;-83
2023/08/19 08:46:52;;;;;;;13.43;2.47;;;21.90;99.90;;;;;;5028796;28;20040;-80
2023/08/19 08:49:19;;;;;;;16.35;1.95;;;21.80;99.90;;;;;;5041949;28;20115;-82
2023/08/19 08:51:45;;;;;;;12.82;2.10;;;21.60;99.90;;;;;;5046526;28;20136;-82
2023/08/19 08:54:12;;;;;;;13.30;1.85;;;21.50;99.90;;;;;;5041699;28;20133;-80
2023/08/19 08:56:40;;;;;;;10.07;1.85;;;21.40;99.90;;;;;;5046072;28;20043;-81
2023/08/19 08:59:07;;;;;;;7.45;1.60;;;21.40;99.90;;;;;;5051654;28;20064;-80
2023/08/19 09:01:34;;;;;;;7.05;1.67;;;21.30;99.90;;;;;;5031340;28;20055;-80
2023/08/19 09:04:00;;;;;;;8.32;1.50;;;21.30;99.90;;;;;;5020431;28;20543;-80
2023/08/19 09:06:28;;;;;;;9.93;1.52;;;21.30;99.90;;;;;;5018452;28;20055;-81
2023/08/19 09:08:55;;;;;;;12.10;1.63;;;21.20;99.90;;;;;;5036659;28;20041;-81
2023/08/19 09:11:22;;;;;;;12.57;2.28;;;21.20;99.90;;;;;;5038236;28;20434;-81
2023/08/19 09:13:48;;;;;;;14.05;1.90;;;21.00;99.90;;;;;;5044131;28;20076;-80
2023/08/19 09:19:01;;;;;;;9.93;1.75;;;21.30;99.90;;;;;;5054496;28;20118;-80
2023/08/19 09:21:27;;;;;;;8.23;1.70;;;21.30;99.90;;;;;;5052505;28;20045;-80
2023/08/19 09:23:54;;;;;;;8.23;1.63;;;21.30;99.90;;;;;;5054656;28;20043;-80
2023/08/19 09:26:22;;;;;;;7.22;1.65;;;21.40;99.90;;;;;;5052371;28;20127;-81
2023/08/19 09:28:49;;;;;;;10.68;1.80;;;21.40;99.90;;;;;;5039011;28;20041;-80
2023/08/19 09:31:15;;;;;;;8.45;1.67;;;21.60;99.90;;;;;;5053999;28;20028;-80
2023/08/19 09:33:42;;;;;;;7.45;1.58;;;21.90;99.90;;;;;;5043943;28;20056;-81
2023/08/19 09:36:09;;;;;;;6.53;1.48;;;22.00;99.90;;;;;;5018112;28;20480;-81
2023/08/19 09:41:23;;;;;;;4.93;1.40;;;22.50;99.90;;;;;;5034468;28;20436;-81
2023/08/19 09:43:49;;;;;;;7.15;1.40;;;22.60;99.90;;;;;;5045531;28;20531;-81
2023/08/19 09:46:16;;;;;;;13.38;1.88;;;22.60;99.90;;;;;;5053600;28;20143;-81
2023/08/19 09:48:43;;;;;;;6.75;1.30;;;22.80;99.90;;;;;;5068463;28;20051;-81
2023/08/19 09:51:09;;;;;;;8.35;1.83;;;22.90;99.90;;;;;;5056248;28;20372;-81
2023/08/19 09:53:36;;;;;;;8.98;2.15;;;23.00;99.90;;;;;;5053230;28;20048;-81
2023/08/19 09:56:03;;;;;;;5.53;1.83;;;23.30;99.90;;;;;;5055511;28;20045;-81
2023/08/19 09:58:29;;;;;;;9.15;1.52;;;23.70;99.90;;;;;;5055618;28;20065;-81
2023/08/19 10:00:57;;;;;;;6.97;1.48;;;24.00;99.90;;;;;;5053528;28;20055;-81
2023/08/19 10:03:23;;;;;;;6.70;1.42;;;24.00;99.90;;;;;;5055093;28;20475;-81
2023/08/19 10:05:52;;;;;;;9.75;1.50;;;23.70;99.90;;;;;;5054574;28;20045;-81
2023/08/19 10:08:21;;;;;;;8.85;1.42;;;23.80;99.90;;;;;;5054789;28;20106;-81
2023/08/19 10:10:48;;;;;;;8.55;1.52;;;23.60;99.90;;;;;;5080171;28;20068;-81
2023/08/19 10:13:14;;;;;;;4.82;1.33;;;23.30;99.90;;;;;;5070201;28;20468;-81
2023/08/19 10:15:41;;;;;;;8.85;1.58;;;23.30;99.90;;;;;;5054742;28;20063;-81
2023/08/19 10:18:12;;;;;;;5.93;1.50;;;23.10;99.90;;;;;;5086307;28;20033;-81
2023/08/19 10:20:38;;;;;;;6.43;1.60;;;22.90;99.90;;;;;;5083782;28;20036;-81
2023/08/19 10:23:05;;;;;;;7.90;1.60;;;23.10;99.90;;;;;;5077151;28;20040;-81
2023/08/19 10:25:32;;;;;;;8.27;1.50;;;23.70;99.90;;;;;;5069590;28;20052;-81
2023/08/19 10:27:59;;;;;;;9.05;1.67;;;24.10;99.90;;;;;;5066149;28;20136;-81
2023/08/19 10:30:28;;;;;;;7.63;1.27;;;24.00;99.90;;;;;;5054518;28;20048;-81
2023/08/19 10:32:55;;;;;;;6.93;1.42;;;23.70;99.90;;;;;;5052930;28;20049;-80
2023/08/19 10:35:21;;;;;;;6.85;1.45;;;23.60;99.90;;;;;;5083727;28;20051;-81
2023/08/19 10:37:51;;;;;;;7.57;1.67;;;23.60;99.90;;;;;;5081702;28;20369;-81
2023/08/19 10:40:18;;;;;;;9.90;1.67;;;23.80;99.90;;;;;;5080411;28;20041;-81
2023/08/19 10:42:44;;;;;;;5.80;1.30;;;24.10;99.90;;;;;;5053827;28;20081;-81
2023/08/19 10:45:11;;;;;;;8.13;2.05;;;24.60;99.90;;;;;;5054479;28;20127;-81
2023/08/19 10:47:38;;;;;;;8.40;2.08;;;24.90;99.90;;;;;;5068067;28;20132;-81
2023/08/19 10:50:04;;;;;;;9.60;1.90;;;25.00;99.90;;;;;;5064520;28;20102;-81
2023/08/19 10:52:31;;;;;;;11.00;2.15;;;25.20;99.90;;;;;;5058015;28;20128;-81
2023/08/19 10:54:58;;;;;;;8.75;2.10;;;25.80;99.90;;;;;;5070696;28;20093;-81
2023/08/19 10:57:27;;;;;;;10.93;2.13;;;26.40;99.90;;;;;;5078969;28;20040;-82
2023/08/19 10:59:54;;;;;;;8.45;2.13;;;26.80;99.90;;;;;;5080313;28;20464;-81
2023/08/19 11:02:20;;;;;;;7.40;1.75;;;27.20;99.90;;;;;;5054287;28;20422;-81
2023/08/19 11:04:47;;;;;;;11.68;2.40;;;27.70;99.90;;;;;;5053083;28;20041;-81
2023/08/19 11:07:16;;;;;;;8.57;1.98;;;27.90;99.90;;;;;;5064794;28;20040;-81
2023/08/19 11:09:43;;;;;;;7.80;2.08;;;27.90;99.90;;;;;;5083886;28;20067;-81
2023/08/19 11:12:10;;;;;;;7.47;1.83;;;28.10;99.90;;;;;;5054118;28;20045;-81
2023/08/19 11:14:38;;;;;;;9.35;2.10;;;28.00;99.90;;;;;;5081315;28;20484;-81
2023/08/19 11:17:04;;;;;;;8.82;2.25;;;28.00;99.90;;;;;;5070672;28;20122;-81
2023/08/19 11:19:31;;;;;;;8.50;2.00;;;27.50;99.90;;;;;;5077861;28;20053;-81
2023/08/19 11:21:58;;;;;;;8.60;1.90;;;27.20;99.90;;;;;;5066664;28;20041;-81
2023/08/19 11:24:25;;;;;;;7.80;2.03;;;27.30;99.90;;;;;;5066859;28;20490;-81
2023/08/19 11:26:52;;;;;;;9.98;2.30;;;27.60;99.90;;;;;;5055319;28;20103;-84
2023/08/19 11:29:18;;;;;;;10.48;2.40;;;27.00;99.90;;;;;;5081113;28;20036;-81
2023/08/19 11:31:45;;;;;;;9.65;2.30;;;26.80;99.90;;;;;;5070260;28;20096;-81
2023/08/19 11:34:12;;;;;;;9.18;2.10;;;26.60;99.90;;;;;;5056585;28;20137;-81
2023/08/19 11:39:08;;;;;;;20.95;2.05;;;26.50;99.90;;;;;;5075950;28;20041;-80
2023/08/19 11:41:38;;;;;;;11.02;2.25;;;25.90;99.90;;;;;;5056972;28;20041;-81
2023/08/19 11:44:04;;;;;;;9.77;2.20;;;25.00;99.90;;;;;;5039314;28;20453;-81
2023/08/19 11:46:33;;;;;;;9.38;2.40;;;24.60;99.90;;;;;;5053937;28;20079;-80
2023/08/19 11:49:01;;;;;;;13.60;2.40;;;25.00;99.90;;;;;;5047038;28;20072;-81
2023/08/19 11:51:27;;;;;;;8.45;1.90;;;25.40;99.90;;;;;;5052088;28;20046;-80
2023/08/19 11:53:54;;;;;;;9.18;2.40;;;25.90;99.90;;;;;;5076214;28;20044;-81
2023/08/19 11:56:21;;;;;;;12.48;2.67;;;25.70;99.90;;;;;;5051834;28;20099;-81
2023/08/19 11:58:51;;;;;;;7.73;2.20;;;25.90;99.90;;;;;;5061843;28;20367;-81
2023/08/19 12:01:17;;;;;;;10.65;2.20;;;25.60;99.90;;;;;;5022112;28;20473;-80
2023/08/19 12:03:44;;;;;;;10.20;2.25;;;25.00;99.90;;;;;;5057974;28;20060;-80
2023/08/19 12:06:11;;;;;;;11.45;2.65;;;24.80;99.90;;;;;;5048076;28;20495;-82
2023/08/19 12:08:38;;;;;;;11.88;2.38;;;25.00;99.90;;;;;;5068626;28;20083;-80
2023/08/19 12:11:05;;;;;;;13.82;2.38;;;25.30;99.90;;;;;;5025010;28;20136;-82
2023/08/19 12:13:31;;;;;;;9.90;2.22;;;25.60;99.90;;;;;;5036001;28;20132;-80
2023/08/19 12:16:01;;;;;;;11.60;2.50;;;25.90;99.90;;;;;;5019273;28;20045;-80
2023/08/19 12:20:58;;;;;;;10.85;2.30;;;27.10;99.90;;;;;;5051349;28;20056;-81
2023/08/19 12:23:24;;;;;;;10.70;2.47;;;27.50;99.90;;;;;;5054996;28;20047;-81
2023/08/19 12:25:51;;;;;;;10.88;2.72;;;27.70;99.90;;;;;;5056943;28;20076;-81
2023/08/19 12:28:20;;;;;;;10.38;2.30;;;27.90;99.90;;;;;;5060717;28;20119;-81
2023/08/19 12:30:46;;;;;;;9.85;2.50;;;28.50;99.90;;;;;;5037624;28;20073;-82
2023/08/19 12:33:13;;;;;;;8.30;2.28;;;28.90;99.90;;;;;;5058454;28;20072;-79
2023/08/19 12:35:41;;;;;;;9.82;2.53;;;28.30;99.90;;;;;;5044728;28;20074;-82
2023/08/19 12:38:10;;;;;;;11.00;2.78;;;28.20;99.90;;;;;;5039994;28;20073;-82
2023/08/19 12:40:37;;;;;;;9.70;2.40;;;28.00;99.90;;;;;;5022615;28;20057;-81
2023/08/19 12:43:03;;;;;;;11.18;2.45;;;27.40;99.90;;;;;;5066447;28;20107;-80
2023/08/19 12:45:30;;;;;;;9.40;2.10;;;27.80;99.90;;;;;;5042272;28;20046;-82
2023/08/19 12:47:57;;;;;;;8.85;2.40;;;28.40;99.90;;;;;;5055494;28;20102;-82
2023/08/19 12:50:24;;;;;;;11.55;2.50;;;28.80;99.90;;;;;;5068926;28;20059;-79
2023/08/19 12:52:50;;;;;;;10.85;2.35;;;29.20;99.90;;;;;;5061375;28;20362;-81
2023/08/19 12:55:18;;;;;;;11.88;2.65;;;29.20;99.90;;;;;;5065291;28;20032;-82
2023/08/19 12:57:45;;;;;;;11.55;2.20;;;29.70;99.90;;;;;;5066815;28;20112;-80
2023/08/19 13:00:12;;;;;;;10.63;2.45;;;29.50;99.90;;;;;;5054122;28;20410;-79
2023/08/19 13:02:39;;;;;;;10.68;2.40;;;29.70;99.90;;;;;;5059170;28;20460;-80